Terminal Aerodrome Forecast
Issued by NWS

Current Version | Previous Version | Text Only | Print | Product List | Glossary On
Versions: 1 2 3 4 5 6 7 8 9 10 11 12 13 14 15 16 17 18 19 20 21 22 23 24 25 26 27 28 29 30 31
000
FTUS41 KBOX 290856 AAB
TAFHYA
TAF AMD
KHYA 290856Z 2909/3006 23008KT P6SM BKN200
     FM291200 22010KT P6SM VCSH BKN040
     FM291600 24013G20KT P6SM SCT050
     FM300000 26009KT P6SM SCT120
     FM300400 30010KT P6SM SCT090=

USA.gov is the U.S. government's official web portal to all federal, state and local government web resources and services.